Terminal Aerodrome Forecast
Issued by NWS Twin Cities, MN

Home | Current Version | Previous Version | Text Only | Print | Product List | Glossary On
Versions: 1 2 3 4 5 6 7 8 9 10 11 12 13 14 15 16 17 18
000
FTUS43 KMPX 221735
TAFEAU
TAF
KEAU 221735Z 2218/2318 VRB03KT P6SM BKN200
     FM230200 31007KT P6SM BKN080
     FM230400 31009KT P6SM BKN025
     FM230500 32008KT P6SM SCT008 OVC015
     FM231600 02008KT P6SM BKN025=

USA.gov is the U.S. government's official web portal to all federal, state and local government web resources and services.